sensor_id;sensor_type;location;lat;lon;timestamp;P1;durP1;ratioP1;P2;durP2;ratioP2
40373;SDS011;26079;45.958;12.492;2022-11-15T00:01:51;9.25;;;6.05;;
40373;SDS011;26079;45.958;12.492;2022-11-15T00:04:17;8.27;;;6.57;;
40373;SDS011;26079;45.958;12.492;2022-11-15T00:06:43;9.30;;;6.97;;
40373;SDS011;26079;45.958;12.492;2022-11-15T00:09:08;7.25;;;6.55;;
40373;SDS011;26079;45.958;12.492;2022-11-15T00:11:34;9.02;;;6.75;;
40373;SDS011;26079;45.958;12.492;2022-11-15T00:14:00;6.70;;;6.03;;
40373;SDS011;26079;45.958;12.492;2022-11-15T00:16:27;10.25;;;7.57;;
40373;SDS011;26079;45.958;12.492;2022-11-15T00:18:53;7.72;;;6.93;;
40373;SDS011;26079;45.958;12.492;2022-11-15T00:21:18;9.75;;;7.70;;
40373;SDS011;26079;45.958;12.492;2022-11-15T00:23:44;6.93;;;6.30;;
40373;SDS011;26079;45.958;12.492;2022-11-15T00:26:13;8.40;;;6.68;;
40373;SDS011;26079;45.958;12.492;2022-11-15T00:28:40;8.10;;;6.22;;
40373;SDS011;26079;45.958;12.492;2022-11-15T00:31:08;8.50;;;6.68;;
40373;SDS011;26079;45.958;12.492;2022-11-15T00:33:36;7.22;;;6.53;;
40373;SDS011;26079;45.958;12.492;2022-11-15T00:36:02;9.90;;;6.40;;
40373;SDS011;26079;45.958;12.492;2022-11-15T00:38:33;7.72;;;6.82;;
40373;SDS011;26079;45.958;12.492;2022-11-15T00:41:01;7.10;;;6.40;;
40373;SDS011;26079;45.958;12.492;2022-11-15T00:43:27;7.93;;;7.13;;
40373;SDS011;26079;45.958;12.492;2022-11-15T00:45:53;10.43;;;6.88;;
40373;SDS011;26079;45.958;12.492;2022-11-15T00:48:18;12.30;;;7.68;;
40373;SDS011;26079;45.958;12.492;2022-11-15T00:50:44;22.58;;;12.85;;
40373;SDS011;26079;45.958;12.492;2022-11-15T00:53:10;23.88;;;14.80;;
40373;SDS011;26079;45.958;12.492;2022-11-15T00:55:35;21.02;;;12.57;;
40373;SDS011;26079;45.958;12.492;2022-11-15T00:58:01;24.90;;;12.05;;
40373;SDS011;26079;45.958;12.492;2022-11-15T01:00:27;17.90;;;11.95;;
40373;SDS011;26079;45.958;12.492;2022-11-15T01:02:53;14.88;;;9.57;;
40373;SDS011;26079;45.958;12.492;2022-11-15T01:05:18;9.25;;;7.45;;
40373;SDS011;26079;45.958;12.492;2022-11-15T01:07:44;8.05;;;6.55;;
40373;SDS011;26079;45.958;12.492;2022-11-15T01:10:10;8.30;;;7.10;;
40373;SDS011;26079;45.958;12.492;2022-11-15T01:12:35;7.70;;;6.25;;
40373;SDS011;26079;45.958;12.492;2022-11-15T01:15:01;9.43;;;6.68;;
40373;SDS011;26079;45.958;12.492;2022-11-15T01:17:28;8.02;;;7.22;;
40373;SDS011;26079;45.958;12.492;2022-11-15T01:19:54;7.93;;;7.13;;
40373;SDS011;26079;45.958;12.492;2022-11-15T01:22:20;9.93;;;8.18;;
40373;SDS011;26079;45.958;12.492;2022-11-15T01:24:46;8.60;;;7.07;;
40373;SDS011;26079;45.958;12.492;2022-11-15T01:27:11;7.32;;;6.50;;
40373;SDS011;26079;45.958;12.492;2022-11-15T01:29:37;8.02;;;6.85;;
40373;SDS011;26079;45.958;12.492;2022-11-15T01:32:03;6.60;;;6.00;;
40373;SDS011;26079;45.958;12.492;2022-11-15T01:34:29;8.13;;;7.18;;
40373;SDS011;26079;45.958;12.492;2022-11-15T01:36:54;7.35;;;6.20;;
40373;SDS011;26079;45.958;12.492;2022-11-15T01:39:20;11.10;;;7.38;;
40373;SDS011;26079;45.958;12.492;2022-11-15T01:41:45;8.13;;;7.13;;
40373;SDS011;26079;45.958;12.492;2022-11-15T01:46:56;9.23;;;6.93;;
40373;SDS011;26079;45.958;12.492;2022-11-15T01:49:23;7.45;;;6.65;;
40373;SDS011;26079;45.958;12.492;2022-11-15T01:51:49;8.63;;;6.95;;
40373;SDS011;26079;45.958;12.492;2022-11-15T01:54:17;8.20;;;6.63;;
40373;SDS011;26079;45.958;12.492;2022-11-15T01:56:47;7.80;;;7.03;;
40373;SDS011;26079;45.958;12.492;2022-11-15T01:59:18;11.27;;;6.75;;
40373;SDS011;26079;45.958;12.492;2022-11-15T02:01:44;7.90;;;6.78;;
40373;SDS011;26079;45.958;12.492;2022-11-15T02:06:41;9.30;;;7.13;;
40373;SDS011;26079;45.958;12.492;2022-11-15T02:09:08;9.48;;;7.53;;
40373;SDS011;26079;45.958;12.492;2022-11-15T02:11:34;8.35;;;6.80;;
40373;SDS011;26079;45.958;12.492;2022-11-15T02:14:01;9.32;;;7.00;;
40373;SDS011;26079;45.958;12.492;2022-11-15T02:16:31;10.98;;;8.25;;
40373;SDS011;26079;45.958;12.492;2022-11-15T02:32:40;9.43;;;7.53;;
40373;SDS011;26079;45.958;12.492;2022-11-15T02:35:34;9.95;;;7.95;;
40373;SDS011;26079;45.958;12.492;2022-11-15T02:38:05;8.75;;;7.35;;
40373;SDS011;26079;45.958;12.492;2022-11-15T02:40:57;7.93;;;6.22;;
40373;SDS011;26079;45.958;12.492;2022-11-15T02:43:43;10.38;;;6.57;;
40373;SDS011;26079;45.958;12.492;2022-11-15T02:46:39;7.05;;;5.60;;
40373;SDS011;26079;45.958;12.492;2022-11-15T02:49:31;6.20;;;5.60;;
40373;SDS011;26079;45.958;12.492;2022-11-15T02:51:58;7.25;;;6.47;;
40373;SDS011;26079;45.958;12.492;2022-11-15T02:54:25;7.38;;;5.93;;
40373;SDS011;26079;45.958;12.492;2022-11-15T02:56:54;7.32;;;6.63;;
40373;SDS011;26079;45.958;12.492;2022-11-15T03:05:07;7.35;;;6.55;;
40373;SDS011;26079;45.958;12.492;2022-11-15T03:08:00;7.13;;;6.13;;
40373;SDS011;26079;45.958;12.492;2022-11-15T03:10:46;6.47;;;5.78;;
40373;SDS011;26079;45.958;12.492;2022-11-15T03:16:04;6.50;;;5.88;;
40373;SDS011;26079;45.958;12.492;2022-11-15T03:19:08;9.48;;;5.97;;
40373;SDS011;26079;45.958;12.492;2022-11-15T03:21:43;8.93;;;6.63;;
40373;SDS011;26079;45.958;12.492;2022-11-15T03:24:11;6.45;;;5.80;;
40373;SDS011;26079;45.958;12.492;2022-11-15T03:26:39;7.35;;;6.25;;
40373;SDS011;26079;45.958;12.492;2022-11-15T03:29:09;7.15;;;6.47;;
40373;SDS011;26079;45.958;12.492;2022-11-15T03:31:41;6.63;;;5.97;;
40373;SDS011;26079;45.958;12.492;2022-11-15T03:37:00;6.47;;;5.85;;
40373;SDS011;26079;45.958;12.492;2022-11-15T03:39:26;7.03;;;6.30;;
40373;SDS011;26079;45.958;12.492;2022-11-15T03:42:04;6.07;;;5.47;;
40373;SDS011;26079;45.958;12.492;2022-11-15T03:50:10;7.70;;;6.53;;
40373;SDS011;26079;45.958;12.492;2022-11-15T03:52:41;6.93;;;6.30;;
40373;SDS011;26079;45.958;12.492;2022-11-15T03:55:11;6.75;;;6.07;;
40373;SDS011;26079;45.958;12.492;2022-11-15T03:57:40;7.55;;;6.00;;
40373;SDS011;26079;45.958;12.492;2022-11-15T04:00:06;7.10;;;5.65;;
40373;SDS011;26079;45.958;12.492;2022-11-15T04:02:32;6.88;;;6.20;;
40373;SDS011;26079;45.958;12.492;2022-11-15T04:04:57;6.78;;;6.05;;
40373;SDS011;26079;45.958;12.492;2022-11-15T04:07:23;8.63;;;7.40;;
40373;SDS011;26079;45.958;12.492;2022-11-15T04:09:49;6.20;;;5.60;;
40373;SDS011;26079;45.958;12.492;2022-11-15T04:12:37;6.35;;;5.57;;
40373;SDS011;26079;45.958;12.492;2022-11-15T04:15:09;6.82;;;5.63;;
40373;SDS011;26079;45.958;12.492;2022-11-15T04:17:41;7.45;;;5.72;;
40373;SDS011;26079;45.958;12.492;2022-11-15T04:23:13;7.30;;;5.93;;
40373;SDS011;26079;45.958;12.492;2022-11-15T04:25:59;9.15;;;5.57;;
40373;SDS011;26079;45.958;12.492;2022-11-15T04:28:28;6.20;;;5.43;;
40373;SDS011;26079;45.958;12.492;2022-11-15T04:30:53;6.90;;;5.32;;
40373;SDS011;26079;45.958;12.492;2022-11-15T04:33:19;5.18;;;4.57;;
40373;SDS011;26079;45.958;12.492;2022-11-15T04:35:45;6.18;;;5.57;;
40373;SDS011;26079;45.958;12.492;2022-11-15T04:38:30;9.07;;;6.85;;
40373;SDS011;26079;45.958;12.492;2022-11-15T04:40:56;8.95;;;6.43;;
40373;SDS011;26079;45.958;12.492;2022-11-15T04:43:22;6.78;;;6.00;;
40373;SDS011;26079;45.958;12.492;2022-11-15T04:45:47;8.93;;;6.10;;
40373;SDS011;26079;45.958;12.492;2022-11-15T04:48:13;6.43;;;5.80;;
40373;SDS011;26079;45.958;12.492;2022-11-15T04:50:39;9.05;;;6.97;;
40373;SDS011;26079;45.958;12.492;2022-11-15T04:53:04;8.48;;;6.93;;
40373;SDS011;26079;45.958;12.492;2022-11-15T04:55:31;11.23;;;6.90;;
40373;SDS011;26079;45.958;12.492;2022-11-15T04:57:57;7.70;;;6.90;;
40373;SDS011;26079;45.958;12.492;2022-11-15T05:00:26;8.38;;;6.90;;
40373;SDS011;26079;45.958;12.492;2022-11-15T05:02:52;8.82;;;6.45;;
40373;SDS011;26079;45.958;12.492;2022-11-15T05:05:37;6.95;;;6.22;;
40373;SDS011;26079;45.958;12.492;2022-11-15T05:08:03;7.32;;;6.40;;
40373;SDS011;26079;45.958;12.492;2022-11-15T05:10:29;8.00;;;6.47;;
40373;SDS011;26079;45.958;12.492;2022-11-15T05:12:55;12.15;;;7.43;;
40373;SDS011;26079;45.958;12.492;2022-11-15T05:15:20;7.03;;;6.03;;
40373;SDS011;26079;45.958;12.492;2022-11-15T05:17:46;10.18;;;6.70;;
40373;SDS011;26079;45.958;12.492;2022-11-15T05:20:12;10.23;;;8.07;;
40373;SDS011;26079;45.958;12.492;2022-11-15T05:22:38;8.18;;;6.07;;
40373;SDS011;26079;45.958;12.492;2022-11-15T05:25:04;7.30;;;6.60;;
40373;SDS011;26079;45.958;12.492;2022-11-15T05:27:31;9.10;;;7.35;;
40373;SDS011;26079;45.958;12.492;2022-11-15T05:29:57;8.27;;;6.45;;
40373;SDS011;26079;45.958;12.492;2022-11-15T05:32:23;9.25;;;7.50;;
40373;SDS011;26079;45.958;12.492;2022-11-15T05:34:49;10.43;;;8.63;;
40373;SDS011;26079;45.958;12.492;2022-11-15T05:37:15;16.33;;;10.90;;
40373;SDS011;26079;45.958;12.492;2022-11-15T05:39:41;11.35;;;8.70;;
40373;SDS011;26079;45.958;12.492;2022-11-15T05:42:11;11.15;;;8.52;;
40373;SDS011;26079;45.958;12.492;2022-11-15T05:44:41;7.93;;;6.95;;
40373;SDS011;26079;45.958;12.492;2022-11-15T05:47:13;8.60;;;6.93;;
40373;SDS011;26079;45.958;12.492;2022-11-15T05:49:44;7.82;;;5.47;;
40373;SDS011;26079;45.958;12.492;2022-11-15T05:52:11;8.30;;;6.28;;
40373;SDS011;26079;45.958;12.492;2022-11-15T05:54:41;7.20;;;6.50;;
40373;SDS011;26079;45.958;12.492;2022-11-15T05:57:07;7.68;;;6.22;;
40373;SDS011;26079;45.958;12.492;2022-11-15T05:59:33;6.50;;;5.10;;
40373;SDS011;26079;45.958;12.492;2022-11-15T06:02:00;8.57;;;5.70;;
40373;SDS011;26079;45.958;12.492;2022-11-15T06:04:25;7.38;;;6.35;;
40373;SDS011;26079;45.958;12.492;2022-11-15T06:06:51;6.57;;;5.60;;
40373;SDS011;26079;45.958;12.492;2022-11-15T06:09:17;7.10;;;5.05;;
40373;SDS011;26079;45.958;12.492;2022-11-15T06:11:42;6.15;;;5.47;;
40373;SDS011;26079;45.958;12.492;2022-11-15T06:14:08;6.03;;;5.38;;
40373;SDS011;26079;45.958;12.492;2022-11-15T06:16:34;7.43;;;6.07;;
40373;SDS011;26079;45.958;12.492;2022-11-15T06:18:59;7.63;;;6.15;;
40373;SDS011;26079;45.958;12.492;2022-11-15T06:21:25;7.45;;;6.72;;
40373;SDS011;26079;45.958;12.492;2022-11-15T06:23:53;8.05;;;7.07;;
40373;SDS011;26079;45.958;12.492;2022-11-15T06:26:19;14.52;;;7.78;;
40373;SDS011;26079;45.958;12.492;2022-11-15T06:28:44;11.88;;;9.75;;
40373;SDS011;26079;45.958;12.492;2022-11-15T06:31:10;21.20;;;13.23;;
40373;SDS011;26079;45.958;12.492;2022-11-15T06:33:37;17.75;;;11.23;;
40373;SDS011;26079;45.958;12.492;2022-11-15T06:36:12;17.70;;;12.82;;
40373;SDS011;26079;45.958;12.492;2022-11-15T06:38:41;15.52;;;10.95;;
40373;SDS011;26079;45.958;12.492;2022-11-15T06:41:08;20.23;;;11.38;;
40373;SDS011;26079;45.958;12.492;2022-11-15T06:43:34;16.00;;;11.23;;
40373;SDS011;26079;45.958;12.492;2022-11-15T06:46:01;16.20;;;10.98;;
40373;SDS011;26079;45.958;12.492;2022-11-15T06:48:28;10.43;;;8.35;;
40373;SDS011;26079;45.958;12.492;2022-11-15T06:50:55;8.20;;;7.40;;
40373;SDS011;26079;45.958;12.492;2022-11-15T06:53:22;10.70;;;7.80;;
40373;SDS011;26079;45.958;12.492;2022-11-15T06:55:48;11.13;;;7.78;;
40373;SDS011;26079;45.958;12.492;2022-11-15T06:58:14;9.40;;;7.88;;
40373;SDS011;26079;45.958;12.492;2022-11-15T07:00:40;7.32;;;6.55;;
40373;SDS011;26079;45.958;12.492;2022-11-15T07:03:06;11.90;;;6.30;;
40373;SDS011;26079;45.958;12.492;2022-11-15T07:05:32;9.52;;;5.75;;
40373;SDS011;26079;45.958;12.492;2022-11-15T07:07:58;6.50;;;5.88;;
40373;SDS011;26079;45.958;12.492;2022-11-15T07:10:25;7.20;;;5.68;;
40373;SDS011;26079;45.958;12.492;2022-11-15T07:12:51;5.97;;;5.15;;
40373;SDS011;26079;45.958;12.492;2022-11-15T07:15:18;6.95;;;6.22;;
40373;SDS011;26079;45.958;12.492;2022-11-15T07:17:44;10.20;;;7.22;;
40373;SDS011;26079;45.958;12.492;2022-11-15T07:20:10;15.50;;;11.13;;
40373;SDS011;26079;45.958;12.492;2022-11-15T07:22:38;11.23;;;7.15;;
40373;SDS011;26079;45.958;12.492;2022-11-15T07:25:04;9.35;;;7.60;;
40373;SDS011;26079;45.958;12.492;2022-11-15T07:27:30;10.65;;;7.18;;
40373;SDS011;26079;45.958;12.492;2022-11-15T07:29:55;11.40;;;8.23;;
40373;SDS011;26079;45.958;12.492;2022-11-15T07:32:21;21.00;;;13.20;;
40373;SDS011;26079;45.958;12.492;2022-11-15T07:34:47;26.35;;;15.00;;
40373;SDS011;26079;45.958;12.492;2022-11-15T07:37:12;16.67;;;12.90;;
40373;SDS011;26079;45.958;12.492;2022-11-15T07:39:38;15.32;;;11.43;;
40373;SDS011;26079;45.958;12.492;2022-11-15T07:42:04;12.38;;;9.80;;
40373;SDS011;26079;45.958;12.492;2022-11-15T07:44:48;11.32;;;8.30;;
40373;SDS011;26079;45.958;12.492;2022-11-15T07:47:14;7.57;;;6.57;;
40373;SDS011;26079;45.958;12.492;2022-11-15T07:49:40;7.82;;;6.80;;
40373;SDS011;26079;45.958;12.492;2022-11-15T07:52:05;8.63;;;6.95;;
40373;SDS011;26079;45.958;12.492;2022-11-15T07:54:31;7.90;;;6.22;;
40373;SDS011;26079;45.958;12.492;2022-11-15T07:56:57;9.48;;;6.50;;
40373;SDS011;26079;45.958;12.492;2022-11-15T07:59:23;7.65;;;6.57;;
40373;SDS011;26079;45.958;12.492;2022-11-15T08:01:48;11.02;;;7.47;;
40373;SDS011;26079;45.958;12.492;2022-11-15T08:04:14;7.95;;;7.15;;
40373;SDS011;26079;45.958;12.492;2022-11-15T08:06:40;9.75;;;8.73;;
40373;SDS011;26079;45.958;12.492;2022-11-15T08:09:05;9.25;;;8.02;;
40373;SDS011;26079;45.958;12.492;2022-11-15T08:11:31;11.40;;;9.07;;
40373;SDS011;26079;45.958;12.492;2022-11-15T08:13:57;9.38;;;8.48;;
40373;SDS011;26079;45.958;12.492;2022-11-15T08:16:23;7.70;;;6.93;;
40373;SDS011;26079;45.958;12.492;2022-11-15T08:18:48;9.10;;;5.70;;
40373;SDS011;26079;45.958;12.492;2022-11-15T08:21:14;8.18;;;7.38;;
40373;SDS011;26079;45.958;12.492;2022-11-15T08:23:44;7.47;;;5.82;;
40373;SDS011;26079;45.958;12.492;2022-11-15T08:26:10;11.63;;;5.38;;
40373;SDS011;26079;45.958;12.492;2022-11-15T08:28:36;7.55;;;5.13;;
40373;SDS011;26079;45.958;12.492;2022-11-15T08:31:02;7.93;;;6.53;;
40373;SDS011;26079;45.958;12.492;2022-11-15T08:33:28;6.60;;;5.68;;
40373;SDS011;26079;45.958;12.492;2022-11-15T08:35:58;13.70;;;6.10;;
40373;SDS011;26079;45.958;12.492;2022-11-15T08:38:25;6.90;;;6.20;;
40373;SDS011;26079;45.958;12.492;2022-11-15T08:40:53;7.68;;;6.30;;
40373;SDS011;26079;45.958;12.492;2022-11-15T08:43:24;6.32;;;5.72;;
40373;SDS011;26079;45.958;12.492;2022-11-15T08:45:50;6.60;;;5.68;;
40373;SDS011;26079;45.958;12.492;2022-11-15T08:48:16;5.93;;;5.35;;
40373;SDS011;26079;45.958;12.492;2022-11-15T08:50:41;8.02;;;6.55;;
40373;SDS011;26079;45.958;12.492;2022-11-15T08:53:09;6.35;;;5.65;;
40373;SDS011;26079;45.958;12.492;2022-11-15T08:55:36;7.00;;;6.30;;
40373;SDS011;26079;45.958;12.492;2022-11-15T08:58:03;8.25;;;5.85;;
40373;SDS011;26079;45.958;12.492;2022-11-15T09:00:29;11.32;;;7.15;;
40373;SDS011;26079;45.958;12.492;2022-11-15T09:02:55;6.45;;;5.78;;
40373;SDS011;26079;45.958;12.492;2022-11-15T09:05:20;7.57;;;6.40;;
40373;SDS011;26079;45.958;12.492;2022-11-15T09:07:46;11.38;;;10.20;;
40373;SDS011;26079;45.958;12.492;2022-11-15T09:10:12;9.02;;;8.13;;
40373;SDS011;26079;45.958;12.492;2022-11-15T09:12:38;13.75;;;8.57;;
40373;SDS011;26079;45.958;12.492;2022-11-15T09:15:04;9.48;;;8.52;;
40373;SDS011;26079;45.958;12.492;2022-11-15T09:17:31;8.85;;;7.95;;
40373;SDS011;26079;45.958;12.492;2022-11-15T09:19:56;8.25;;;6.93;;
40373;SDS011;26079;45.958;12.492;2022-11-15T09:22:22;7.60;;;6.90;;
40373;SDS011;26079;45.958;12.492;2022-11-15T09:24:48;29.05;;;23.20;;
40373;SDS011;26079;45.958;12.492;2022-11-15T09:27:13;14.68;;;10.23;;
40373;SDS011;26079;45.958;12.492;2022-11-15T09:29:39;11.23;;;6.97;;
40373;SDS011;26079;45.958;12.492;2022-11-15T09:32:05;10.77;;;7.85;;
40373;SDS011;26079;45.958;12.492;2022-11-15T09:34:31;8.40;;;7.53;;
40373;SDS011;26079;45.958;12.492;2022-11-15T09:36:56;12.38;;;8.50;;
40373;SDS011;26079;45.958;12.492;2022-11-15T09:39:22;7.70;;;6.70;;
40373;SDS011;26079;45.958;12.492;2022-11-15T09:42:07;11.40;;;7.35;;
40373;SDS011;26079;45.958;12.492;2022-11-15T09:50:01;9.13;;;5.22;;
40373;SDS011;26079;45.958;12.492;2022-11-15T09:52:33;7.20;;;5.47;;
40373;SDS011;26079;45.958;12.492;2022-11-15T09:55:01;6.30;;;5.35;;
40373;SDS011;26079;45.958;12.492;2022-11-15T09:57:30;6.38;;;4.90;;
40373;SDS011;26079;45.958;12.492;2022-11-15T10:03:10;6.88;;;6.05;;
40373;SDS011;26079;45.958;12.492;2022-11-15T10:05:47;7.20;;;5.00;;
40373;SDS011;26079;45.958;12.492;2022-11-15T10:11:06;7.05;;;5.75;;
40373;SDS011;26079;45.958;12.492;2022-11-15T10:13:36;8.90;;;5.90;;
40373;SDS011;26079;45.958;12.492;2022-11-15T10:19:01;5.75;;;5.20;;
40373;SDS011;26079;45.958;12.492;2022-11-15T10:22:23;7.90;;;5.78;;
40373;SDS011;26079;45.958;12.492;2022-11-15T10:24:44;9.57;;;5.80;;
40373;SDS011;26079;45.958;12.492;2022-11-15T10:27:11;6.60;;;5.93;;
40373;SDS011;26079;45.958;12.492;2022-11-15T10:29:43;5.95;;;5.22;;
40373;SDS011;26079;45.958;12.492;2022-11-15T10:32:11;5.65;;;5.03;;
40373;SDS011;26079;45.958;12.492;2022-11-15T10:34:38;12.80;;;5.28;;
40373;SDS011;26079;45.958;12.492;2022-11-15T10:37:04;5.57;;;5.07;;
40373;SDS011;26079;45.958;12.492;2022-11-15T10:39:30;4.60;;;3.97;;
40373;SDS011;26079;45.958;12.492;2022-11-15T10:41:58;7.82;;;5.80;;
40373;SDS011;26079;45.958;12.492;2022-11-15T10:44:41;5.68;;;4.90;;
40373;SDS011;26079;45.958;12.492;2022-11-15T10:50:11;6.30;;;5.18;;
40373;SDS011;26079;45.958;12.492;2022-11-15T10:52:53;8.82;;;5.82;;
40373;SDS011;26079;45.958;12.492;2022-11-15T10:55:21;4.95;;;4.13;;
40373;SDS011;26079;45.958;12.492;2022-11-15T10:57:51;4.90;;;4.18;;
40373;SDS011;26079;45.958;12.492;2022-11-15T11:02:55;7.15;;;6.55;;
40373;SDS011;26079;45.958;12.492;2022-11-15T11:05:34;6.72;;;5.70;;
40373;SDS011;26079;45.958;12.492;2022-11-15T11:10:36;6.20;;;5.18;;
40373;SDS011;26079;45.958;12.492;2022-11-15T11:13:21;11.48;;;4.13;;
40373;SDS011;26079;45.958;12.492;2022-11-15T11:15:50;5.70;;;5.20;;
40373;SDS011;26079;45.958;12.492;2022-11-15T11:35:19;4.95;;;4.45;;
40373;SDS011;26079;45.958;12.492;2022-11-15T11:45:28;4.47;;;4.07;;
40373;SDS011;26079;45.958;12.492;2022-11-15T11:51:13;7.07;;;4.60;;
40373;SDS011;26079;45.958;12.492;2022-11-15T11:53:47;6.03;;;4.00;;
40373;SDS011;26079;45.958;12.492;2022-11-15T11:56:17;4.10;;;3.70;;
40373;SDS011;26079;45.958;12.492;2022-11-15T11:58:51;4.00;;;3.60;;
40373;SDS011;26079;45.958;12.492;2022-11-15T12:01:35;6.10;;;3.22;;
40373;SDS011;26079;45.958;12.492;2022-11-15T12:14:56;7.57;;;6.75;;
40373;SDS011;26079;45.958;12.492;2022-11-15T12:17:28;4.53;;;4.13;;
40373;SDS011;26079;45.958;12.492;2022-11-15T12:20:06;4.80;;;4.25;;
40373;SDS011;26079;45.958;12.492;2022-11-15T12:22:53;6.65;;;4.85;;
40373;SDS011;26079;45.958;12.492;2022-11-15T12:33:57;4.57;;;3.53;;
40373;SDS011;26079;45.958;12.492;2022-11-15T12:43:52;4.32;;;3.92;;
40373;SDS011;26079;45.958;12.492;2022-11-15T12:48:46;4.65;;;4.13;;
40373;SDS011;26079;45.958;12.492;2022-11-15T12:51:12;8.07;;;4.72;;
40373;SDS011;26079;45.958;12.492;2022-11-15T12:53:37;9.02;;;4.93;;
40373;SDS011;26079;45.958;12.492;2022-11-15T12:56:36;5.07;;;4.45;;
40373;SDS011;26079;45.958;12.492;2022-11-15T12:58:57;6.20;;;5.10;;
40373;SDS011;26079;45.958;12.492;2022-11-15T13:04:12;7.00;;;6.30;;
40373;SDS011;26079;45.958;12.492;2022-11-15T13:12:01;10.07;;;6.07;;
40373;SDS011;26079;45.958;12.492;2022-11-15T13:14:46;7.70;;;5.97;;
40373;SDS011;26079;45.958;12.492;2022-11-15T13:17:16;7.50;;;6.07;;
40373;SDS011;26079;45.958;12.492;2022-11-15T13:19:48;10.55;;;7.47;;
40373;SDS011;26079;45.958;12.492;2022-11-15T13:22:20;8.75;;;7.22;;
40373;SDS011;26079;45.958;12.492;2022-11-15T13:25:04;9.90;;;6.75;;
40373;SDS011;26079;45.958;12.492;2022-11-15T13:27:48;9.50;;;7.15;;
40373;SDS011;26079;45.958;12.492;2022-11-15T13:30:20;14.30;;;6.90;;
40373;SDS011;26079;45.958;12.492;2022-11-15T13:32:48;12.23;;;9.40;;
40373;SDS011;26079;45.958;12.492;2022-11-15T13:35:23;32.28;;;23.00;;
40373;SDS011;26079;45.958;12.492;2022-11-15T13:37:51;68.70;;;52.08;;
40373;SDS011;26079;45.958;12.492;2022-11-15T13:42:47;14.15;;;12.18;;
40373;SDS011;26079;45.958;12.492;2022-11-15T13:45:13;9.75;;;8.75;;
40373;SDS011;26079;45.958;12.492;2022-11-15T13:47:42;9.15;;;8.27;;
40373;SDS011;26079;45.958;12.492;2022-11-15T13:50:11;11.30;;;8.02;;
40373;SDS011;26079;45.958;12.492;2022-11-15T13:52:38;10.88;;;8.27;;
40373;SDS011;26079;45.958;12.492;2022-11-15T13:57:44;8.20;;;7.38;;
40373;SDS011;26079;45.958;12.492;2022-11-15T14:02:51;10.27;;;8.10;;
40373;SDS011;26079;45.958;12.492;2022-11-15T14:05:18;14.02;;;8.73;;
40373;SDS011;26079;45.958;12.492;2022-11-15T14:07:56;9.10;;;8.23;;
40373;SDS011;26079;45.958;12.492;2022-11-15T14:10:27;20.13;;;10.38;;
40373;SDS011;26079;45.958;12.492;2022-11-15T14:15:32;11.57;;;8.65;;
40373;SDS011;26079;45.958;12.492;2022-11-15T14:17:59;8.13;;;7.38;;
40373;SDS011;26079;45.958;12.492;2022-11-15T14:20:30;10.23;;;8.70;;
40373;SDS011;26079;45.958;12.492;2022-11-15T14:23:02;10.00;;;8.82;;
40373;SDS011;26079;45.958;12.492;2022-11-15T14:25:31;10.20;;;9.20;;
40373;SDS011;26079;45.958;12.492;2022-11-15T14:28:32;10.13;;;9.15;;
40373;SDS011;26079;45.958;12.492;2022-11-15T14:30:51;12.40;;;9.25;;
40373;SDS011;26079;45.958;12.492;2022-11-15T14:33:23;12.80;;;9.27;;
40373;SDS011;26079;45.958;12.492;2022-11-15T14:35:51;9.30;;;8.40;;
40373;SDS011;26079;45.958;12.492;2022-11-15T14:38:17;12.30;;;9.95;;
40373;SDS011;26079;45.958;12.492;2022-11-15T14:40:43;15.23;;;9.45;;
40373;SDS011;26079;45.958;12.492;2022-11-15T14:43:12;16.02;;;11.02;;
40373;SDS011;26079;45.958;12.492;2022-11-15T14:45:39;9.48;;;8.43;;
40373;SDS011;26079;45.958;12.492;2022-11-15T14:48:05;27.95;;;10.52;;
40373;SDS011;26079;45.958;12.492;2022-11-15T14:50:31;15.90;;;9.70;;
40373;SDS011;26079;45.958;12.492;2022-11-15T14:52:58;12.95;;;10.18;;
40373;SDS011;26079;45.958;12.492;2022-11-15T14:57:50;16.23;;;11.48;;
40373;SDS011;26079;45.958;12.492;2022-11-15T15:00:19;15.18;;;12.80;;
40373;SDS011;26079;45.958;12.492;2022-11-15T15:02:46;19.88;;;13.38;;
40373;SDS011;26079;45.958;12.492;2022-11-15T15:05:23;13.88;;;10.68;;
40373;SDS011;26079;45.958;12.492;2022-11-15T15:07:55;18.88;;;13.10;;
40373;SDS011;26079;45.958;12.492;2022-11-15T15:10:21;16.92;;;13.63;;
40373;SDS011;26079;45.958;12.492;2022-11-15T15:12:46;12.25;;;10.95;;
40373;SDS011;26079;45.958;12.492;2022-11-15T15:15:16;18.58;;;12.27;;
40373;SDS011;26079;45.958;12.492;2022-11-15T15:17:46;14.40;;;12.13;;
40373;SDS011;26079;45.958;12.492;2022-11-15T15:20:12;13.75;;;11.98;;
40373;SDS011;26079;45.958;12.492;2022-11-15T15:22:38;16.45;;;12.50;;
40373;SDS011;26079;45.958;12.492;2022-11-15T15:25:18;13.15;;;11.43;;
40373;SDS011;26079;45.958;12.492;2022-11-15T15:27:52;12.65;;;10.18;;
40373;SDS011;26079;45.958;12.492;2022-11-15T15:30:19;12.25;;;10.43;;
40373;SDS011;26079;45.958;12.492;2022-11-15T15:32:45;13.40;;;11.57;;
40373;SDS011;26079;45.958;12.492;2022-11-15T15:35:11;13.73;;;11.05;;
40373;SDS011;26079;45.958;12.492;2022-11-15T15:37:38;15.00;;;10.75;;
40373;SDS011;26079;45.958;12.492;2022-11-15T15:40:08;12.77;;;11.05;;
40373;SDS011;26079;45.958;12.492;2022-11-15T15:42:40;17.30;;;11.98;;
40373;SDS011;26079;45.958;12.492;2022-11-15T15:45:07;13.35;;;11.00;;
40373;SDS011;26079;45.958;12.492;2022-11-15T15:47:33;13.88;;;10.95;;
40373;SDS011;26079;45.958;12.492;2022-11-15T15:49:59;15.65;;;12.05;;
40373;SDS011;26079;45.958;12.492;2022-11-15T15:52:24;14.57;;;12.45;;
40373;SDS011;26079;45.958;12.492;2022-11-15T15:54:50;18.10;;;14.88;;
40373;SDS011;26079;45.958;12.492;2022-11-15T15:57:16;22.15;;;14.75;;
40373;SDS011;26079;45.958;12.492;2022-11-15T15:59:41;16.25;;;14.18;;
40373;SDS011;26079;45.958;12.492;2022-11-15T16:02:11;19.40;;;15.35;;
40373;SDS011;26079;45.958;12.492;2022-11-15T16:04:38;16.08;;;14.48;;
40373;SDS011;26079;45.958;12.492;2022-11-15T16:07:04;17.38;;;15.60;;
40373;SDS011;26079;45.958;12.492;2022-11-15T16:09:29;18.85;;;16.10;;
40373;SDS011;26079;45.958;12.492;2022-11-15T16:12:13;18.65;;;16.15;;
40373;SDS011;26079;45.958;12.492;2022-11-15T16:14:41;23.00;;;20.45;;
40373;SDS011;26079;45.958;12.492;2022-11-15T16:17:30;23.92;;;20.45;;
40373;SDS011;26079;45.958;12.492;2022-11-15T16:19:55;23.77;;;19.58;;
40373;SDS011;26079;45.958;12.492;2022-11-15T16:22:21;19.95;;;16.85;;
40373;SDS011;26079;45.958;12.492;2022-11-15T16:24:46;22.55;;;18.85;;
40373;SDS011;26079;45.958;12.492;2022-11-15T16:27:16;26.67;;;18.33;;
40373;SDS011;26079;45.958;12.492;2022-11-15T16:29:44;24.67;;;18.88;;
40373;SDS011;26079;45.958;12.492;2022-11-15T16:32:10;22.40;;;18.70;;
40373;SDS011;26079;45.958;12.492;2022-11-15T16:34:36;31.00;;;24.80;;
40373;SDS011;26079;45.958;12.492;2022-11-15T16:37:02;186.45;;;95.38;;
40373;SDS011;26079;45.958;12.492;2022-11-15T16:39:29;104.70;;;57.83;;
40373;SDS011;26079;45.958;12.492;2022-11-15T16:41:55;38.30;;;29.60;;
40373;SDS011;26079;45.958;12.492;2022-11-15T16:44:22;28.90;;;22.75;;
40373;SDS011;26079;45.958;12.492;2022-11-15T16:46:48;23.70;;;20.52;;
40373;SDS011;26079;45.958;12.492;2022-11-15T16:49:16;21.90;;;19.40;;
40373;SDS011;26079;45.958;12.492;2022-11-15T16:51:49;30.15;;;21.40;;
40373;SDS011;26079;45.958;12.492;2022-11-15T16:54:15;24.77;;;20.30;;
40373;SDS011;26079;45.958;12.492;2022-11-15T16:56:41;30.40;;;25.27;;